< Typhoon 201213 2012 Season Typhoon 201215 >
Typhoon 201214 (TEMBIN)
General InformationTrack Information on Google MapsDetailed Wind InformationAccess Analytics MapList of All Images || NewsDisaster Info.WeblogTrackbackTyphoon FrontTwiphoonTyphoon Now!Typhoon ImaginationResourceGoogle EarthGE AnimationAtom FeedGeoJSON
Detalied Best Track (Time Zone = UTC)
Year Month Day Hour Lat. Long. Pressure (hPa) Wind (kt) Class Image Chart
2012 8 17 06 21.4 125.9 1008 0 2 Image Chart
2012 8 17 12 20.8 125.7 1008 0 2 Image Chart
2012 8 17 18 19.9 125.9 1008 0 2 Image Chart
2012 8 18 00 19.0 126.0 1008 0 2 Image Chart
2012 8 18 06 18.7 125.8 1006 0 2 Image Chart
2012 8 18 12 18.3 125.4 1006 0 2 Image Chart
2012 8 18 18 17.8 125.0 1006 0 2 Image Chart
2012 8 19 00 17.6 124.8 1004 0 2 Image Chart
2012 8 19 06 17.4 124.8 1000 35 3 Image Chart
2012 8 19 12 17.6 124.7 996 40 3 Image Chart
2012 8 19 18 17.7 124.6 992 45 3 Image Chart
2012 8 20 00 18.0 124.8 980 55 4 Image Chart
2012 8 20 06 18.4 124.9 965 70 5 Image Chart
2012 8 20 12 18.8 125.2 950 80 5 Image Chart
2012 8 20 18 19.5 125.3 950 80 5 Image Chart
2012 8 21 00 20.2 125.4 950 80 5 Image Chart
2012 8 21 06 21.1 125.4 950 80 5 Image Chart
2012 8 21 12 21.7 125.2 950 80 5 Image Chart
2012 8 21 18 22.1 125.0 955 75 5 Image Chart
2012 8 22 00 22.4 124.5 965 70 5 Image Chart
2012 8 22 06 22.4 124.3 965 70 5 Image Chart
2012 8 22 12 22.5 124.2 965 70 5 Image Chart
2012 8 22 18 22.5 123.9 965 70 5 Image Chart
2012 8 23 00 22.5 123.6 950 80 5 Image Chart
2012 8 23 06 22.6 123.1 950 80 5 Image Chart
2012 8 23 12 22.7 122.5 950 80 5 Image Chart
2012 8 23 18 22.4 121.3 955 75 5 Image Chart
2012 8 24 00 22.1 120.5 970 65 5 Image Chart
2012 8 24 06 22.3 119.7 970 65 5 Image Chart
2012 8 24 12 22.4 119.3 970 65 5 Image Chart
2012 8 24 18 22.5 118.7 970 65 5 Image Chart
2012 8 25 00 22.5 118.4 970 65 5 Image Chart
2012 8 25 06 22.3 117.8 970 65 5 Image Chart
2012 8 25 12 21.9 117.1 970 65 5 Image Chart
2012 8 25 18 21.4 116.7 970 65 5 Image Chart
2012 8 26 00 21.1 116.7 970 65 5 Image Chart
2012 8 26 06 20.8 116.7 965 70 5 Image Chart
2012 8 26 12 20.5 116.9 965 70 5 Image Chart
2012 8 26 18 20.4 117.4 965 70 5 Image Chart
2012 8 27 00 20.2 118.0 965 70 5 Image Chart
2012 8 27 06 20.7 118.6 965 70 5 Image Chart
2012 8 27 12 21.4 119.9 965 70 5 Image Chart
2012 8 27 18 21.8 120.9 965 70 5 Image Chart
2012 8 28 00 22.8 122.0 970 65 5 Image Chart
2012 8 28 03 23.3 122.4 970 65 5 Image Chart
2012 8 28 06 23.9 122.8 970 65 5 Image Chart
2012 8 28 09 24.7 123.2 970 65 5 Image Chart
2012 8 28 12 25.1 123.6 975 60 4 Image Chart
2012 8 28 15 25.6 123.6 975 60 4 Image Chart
2012 8 28 18 26.2 123.7 980 55 4 Image Chart
2012 8 29 00 27.1 123.8 980 55 4 Image Chart
2012 8 29 06 28.8 124.2 980 55 4 Image Chart
2012 8 29 12 30.5 124.9 980 55 4 Image Chart
2012 8 29 18 32.3 125.0 980 55 4 Image Chart
2012 8 30 00 33.8 126.6 985 50 4 Image Chart
2012 8 30 06 36.0 128.0 994 45 3 Image Chart
2012 8 30 12 36.5 129.4 1004 0 6 Image Chart
2012 8 30 18 38.4 131.2 1004 0 6 Image Chart
2012 8 31 00 38.5 131.4 1006 0 6 Image Chart
2012 8 31 06 38.6 131.9 1008 0 6 Image Chart
2012 8 31 12 38.6 132.2 1010 0 6 Image Chart
2012 8 31 18 39.2 132.2 1010 0 6 Image Chart
2012 9 1 00 39.2 132.2 1012 0 6 Image Chart
Japan Meteorological Agency Best Track Data | Correction Date : 2012-09-26
< Typhoon 201213 2012 Season Typhoon 201215 >

Help